Great Bend, NY

1:37 PM EST on February 23, 2017 (GMT -0500)
Wheeler-Sack Army Air Field

Weather History for KGTB - April, 2014

Change the Weather History Date:

Tuesday, April 8, 2014

  Actual Average Record
Temperature  
Mean Temperature 42 °F -  
Max Temperature 50 °F 46 °F 64 °F (2008)
Min Temperature 35 °F 28 °F 17 °F (2007)
Degree Days  
Heating Degree Days 22    
Moisture  
Dew Point 40 °F    
Average Humidity 98    
Maximum Humidity 100    
Minimum Humidity 70    
Precipitation  
Precipitation 0.67 in - - ()
Sea Level Pressure  
Sea Level Pressure 29.41 in    
Wind  
Wind Speed 10 mph (South)    
Max Wind Speed 22 mph    
Max Gust Speed 32 mph    
Visibility 8 miles    
Events Fog , Rain    
Averages and records for this station are not official NWS values.
T = Trace of Precipitation, MM = Missing Value Source: NWS Daily Summary

Daily Weather History Graph

Daily Weather History Graph

Search for Another Location

Airport or City:

Trip Planner

Search our weather history database for the weather conditions in past years. The results will help you decide how hot, cold, wet, or windy it might be!

Date:

Astronomy

Apr. 08, 2014 Rise Set
Actual Time 6:31 AM EDT 7:38 PM EDT
Civil Twilight 6:02 AM EDT 8:08 PM EDT
Nautical Twilight 5:26 AM EDT 8:43 PM EDT
Astronomical Twilight 4:49 AM EDT 9:21 PM EDT
Moon 1:17 PM EDT (4/8) 2:55 AM EDT (4/8)
Length of Visible Light 14h 05m
Length of Day
13h 06m
Waxing Gibbous, 62% of the Moon is Illuminated
Apr 8
Waxing Gibbous
Apr 15
Full
Apr 22
Last Quarter
Apr 29
New
May 6
First Quarter

Hourly Weather History & Observations

Time (EDT) Temp. Windchill Dew Point Humidity Pressure Visibility Wind Dir Wind Speed Gust Speed Precip Events Conditions
12:03 AM 37.4 °F 30.8 °F 37.4 °F 100% 29.58 in 10.0 mi East 9.2 mph - N/A Rain Light Rain
12:08 AM 37.4 °F 30.8 °F 37.4 °F 100% 29.57 in 9.0 mi ENE 9.2 mph - N/A Rain Light Rain
12:18 AM 37.4 °F 32.8 °F 37.4 °F 100% 29.56 in 10.0 mi NE 5.8 mph - N/A Rain Light Rain
12:23 AM 37.4 °F 32.8 °F 37.4 °F 100% 29.56 in 10.0 mi NE 5.8 mph - N/A   Overcast
12:27 AM 37.4 °F 32.1 °F 37.4 °F 100% 29.55 in 10.0 mi NE 6.9 mph - N/A Rain Light Rain
12:47 AM 37.4 °F 32.1 °F 37.4 °F 100% 29.52 in 10.0 mi NNE 6.9 mph - N/A Rain Light Rain
12:58 AM 37.4 °F 32.8 °F 37.4 °F 100% 29.53 in 10.0 mi North 5.8 mph - 0.05 in Rain Light Rain
1:08 AM 37.4 °F 32.1 °F 37.4 °F 100% 29.54 in 8.0 mi NNW 6.9 mph - N/A Rain Light Rain
1:13 AM 37.4 °F 32.1 °F 37.4 °F 100% 29.55 in 4.0 mi NW 6.9 mph - N/A Rain Heavy Rain
1:23 AM 37.4 °F 33.8 °F 37.4 °F 100% 29.54 in 2.5 mi North 4.6 mph - N/A Rain Heavy Rain
1:28 AM 37.4 °F 32.8 °F 37.4 °F 100% 29.54 in 3.0 mi NNE 5.8 mph - N/A Rain Heavy Rain
1:33 AM 37.4 °F 31.4 °F 37.4 °F 100% 29.53 in 4.0 mi NNE 8.1 mph - N/A Rain Rain
1:38 AM 37.4 °F 32.1 °F 37.4 °F 100% 29.52 in 5.0 mi NNE 6.9 mph - N/A Rain Rain
1:58 AM 36.9 °F 31.4 °F 36.9 °F 100% 29.49 in 7.0 mi NNE 6.9 mph - 0.27 in Rain Rain
2:03 AM 37.4 °F 34.9 °F 37.4 °F 100% 29.49 in 9.0 mi NNE 3.5 mph - N/A Rain Light Rain
2:08 AM 37.4 °F 32.8 °F 37.4 °F 100% 29.49 in 7.0 mi NE 5.8 mph - N/A Rain Rain
2:48 AM 39.2 °F 33.6 °F 39.2 °F 100% 29.44 in 10.0 mi East 8.1 mph - N/A Rain Light Rain
2:58 AM 40.1 °F 33.2 °F 40.1 °F 100% 29.44 in 10.0 mi SE 11.5 mph - 0.13 in Rain Light Rain
3:13 AM 41.0 °F 32.8 °F 41.0 °F 100% 29.40 in 10.0 mi SE 16.1 mph 20.7 mph N/A Rain Light Rain
3:22 AM 41.0 °F 33.9 °F 41.0 °F 100% 29.40 in 10.0 mi SE 12.7 mph - N/A   Overcast
3:37 AM 41.0 °F 32.8 °F 41.0 °F 100% 29.37 in 10.0 mi SE 16.1 mph 26.5 mph N/A   Overcast
3:58 AM 42.3 °F 34.1 °F 42.3 °F 100% 29.37 in 10.0 mi SSE 17.3 mph 29.9 mph 0.00 in   Overcast
4:33 AM 42.8 °F 35.1 °F 42.8 °F 100% 29.34 in 10.0 mi SSE 16.1 mph 23.0 mph N/A   Overcast
4:34 AM 42.8 °F 35.4 °F 42.8 °F 100% 29.34 in 10.0 mi SSE 15.0 mph 23.0 mph N/A Rain Light Rain
4:55 AM 42.8 °F 36.6 °F 42.8 °F 100% 29.33 in 10.0 mi SSE 11.5 mph - N/A   Overcast
4:58 AM 42.3 °F 35.5 °F 42.3 °F 100% 29.34 in 10.0 mi SSE 12.7 mph - 0.01 in   Overcast
5:01 AM 42.8 °F 36.2 °F 42.8 °F 100% 29.32 in 10.0 mi SSE 12.7 mph - N/A Rain Light Rain
5:20 AM 42.8 °F 36.6 °F 42.8 °F 100% 29.31 in 10.0 mi SSE 11.5 mph - N/A   Overcast
5:45 AM 42.8 °F 35.8 °F 42.8 °F 100% 29.30 in 10.0 mi SSE 13.8 mph - N/A Rain Light Rain
5:55 AM 42.8 °F 35.8 °F 42.8 °F 100% 29.29 in 10.0 mi SE 13.8 mph - N/A Rain Light Rain
5:58 AM 42.3 °F 35.5 °F 42.3 °F 100% 29.30 in 10.0 mi SE 12.7 mph - 0.01 in Rain Light Rain
6:25 AM 42.8 °F 37.0 °F 42.8 °F 100% 29.28 in 10.0 mi South 10.4 mph - N/A   Overcast
6:30 AM 42.8 °F 36.2 °F 42.8 °F 100% 29.28 in 10.0 mi SSE 12.7 mph - N/A   Overcast
6:40 AM 42.8 °F 36.6 °F 42.8 °F 100% 29.28 in 10.0 mi SSE 11.5 mph - N/A   Overcast
6:50 AM 42.8 °F 36.2 °F 42.8 °F 100% 29.28 in 10.0 mi South 12.7 mph - N/A   Overcast
6:55 AM 42.8 °F 36.2 °F 42.8 °F 100% 29.28 in 10.0 mi SSE 12.7 mph - N/A   Overcast
6:58 AM 43.0 °F 36.8 °F 43.0 °F 100% 29.29 in 10.0 mi SSE 11.5 mph - 0.00 in   Overcast
7:58 AM 43.3 °F 37.2 °F 43.3 °F 100% 29.28 in 10.0 mi SSE 11.5 mph - N/A   Overcast
8:58 AM 44.6 °F 39.2 °F 44.6 °F 100% 29.26 in 10.0 mi SSE 10.4 mph - N/A   Overcast
9:38 AM 44.6 °F 38.8 °F 44.6 °F 100% 29.23 in 10.0 mi SSE 11.5 mph - N/A   Overcast
9:46 AM 46.4 °F 41.1 °F 46.4 °F 100% 29.23 in 10.0 mi South 11.5 mph - N/A   Light Drizzle
9:58 AM 46.4 °F 40.1 °F 46.4 °F 100% 29.24 in 10.0 mi SSW 15.0 mph - 0.00 in Rain Light Rain
10:58 AM 48.6 °F - 48.2 °F 99% 29.24 in 10.0 mi SSW 13.8 mph - 0.03 in Rain Light Rain
11:18 AM 50.0 °F - 48.2 °F 94% 29.23 in 10.0 mi SW 13.8 mph 25.3 mph N/A   Light Drizzle
11:19 AM 50.0 °F - 48.2 °F 94% 29.23 in 10.0 mi SW 16.1 mph 25.3 mph N/A   Overcast
11:26 AM 48.2 °F - 48.2 °F 100% 29.24 in 10.0 mi WSW 15.0 mph 21.9 mph N/A Rain Light Rain
11:28 AM 48.2 °F - 48.2 °F 100% 29.24 in 10.0 mi West 16.1 mph 24.2 mph N/A   Light Drizzle
11:37 AM 46.4 °F 41.1 °F 46.4 °F 100% 29.25 in 10.0 mi WSW 11.5 mph 32.2 mph N/A   Overcast
11:42 AM 46.4 °F 39.0 °F 46.4 °F 100% 29.26 in 10.0 mi WSW 19.6 mph 32.2 mph N/A   Overcast
11:58 AM 43.5 °F 34.7 °F 43.3 °F 99% 29.28 in 10.0 mi WSW 21.9 mph 27.6 mph 0.01 in   Overcast
12:25 PM 39.2 °F 30.2 °F 37.4 °F 93% 29.31 in 10.0 mi SSW 17.3 mph 25.3 mph N/A   Overcast
12:51 PM 39.2 °F 31.2 °F 32.0 °F 75% 29.33 in 1.5 mi SW 13.8 mph 20.7 mph N/A   Overcast
12:55 PM 37.4 °F 28.9 °F 28.4 °F 70% 29.36 in 0.5 mi WSW 13.8 mph 20.7 mph N/A Fog Light Drizzle
1:55 PM 37.4 °F 28.9 °F 35.6 °F 93% 29.39 in 1.0 mi WSW 13.8 mph 20.7 mph 0.00 in Rain Light Rain
2:55 PM 35.6 °F 26.6 °F 33.8 °F 93% 29.43 in 1.5 mi WSW 13.8 mph 20.7 mph 0.00 in Rain Light Rain
3:37 PM 35.6 °F 27.5 °F 33.8 °F 93% 29.42 in 2.5 mi WSW 11.5 mph 17.3 mph 0.01 in Rain Light Rain
3:55 PM 35.6 °F 26.6 °F 35.6 °F 100% 29.45 in 2.5 mi WSW 13.8 mph - 0.01 in Rain Light Rain
4:55 PM 35.6 °F 26.6 °F 35.6 °F 100% 29.48 in 3.0 mi WSW 13.8 mph - 0.15 in Rain Light Rain
5:55 PM 37.4 °F 30.3 °F 37.4 °F 100% 29.52 in 3.0 mi WSW 10.4 mph - 0.00 in Rain Light Rain
6:55 PM 37.4 °F 29.8 °F 37.4 °F 100% 29.55 in 7.0 mi WSW 11.5 mph - N/A   Overcast
7:55 PM 37.4 °F 31.4 °F 37.4 °F 100% 29.57 in 10.0 mi WSW 8.1 mph - N/A   Mostly Cloudy
8:07 PM 37.4 °F 30.8 °F 37.4 °F 100% 29.57 in 10.0 mi WSW 9.2 mph - N/A   Mostly Cloudy
8:25 PM 37.4 °F 30.8 °F 37.4 °F 100% 29.58 in - WSW 9.2 mph - N/A   Unknown
8:58 PM 37.9 °F 32.7 °F 37.9 °F 100% 29.61 in 10.0 mi WSW 6.9 mph - N/A   Overcast
9:58 PM 38.1 °F 32.3 °F 38.1 °F 100% 29.62 in 10.0 mi WSW 8.1 mph - N/A   Overcast
10:58 PM 38.5 °F 32.7 °F 38.3 °F 99% 29.63 in 10.0 mi WSW 8.1 mph - N/A   Overcast
11:58 PM 39.2 °F 33.6 °F 38.5 °F 97% 29.65 in 10.0 mi WSW 8.1 mph 17.3 mph N/A   Overcast